Darnestown, Maryland
Current Conditions -  °F | °C
As of 11:15 AM on Monday 26 Jan 2015 (Local Time) from KGAI Reporting Station
Overcast Overcast  
Wind Chill: 23°   Ceiling: 800
Heat Index: 30°   Visibility: 2.5mi
Dew Point: 27°   Wind: 8mph
Humidity: 86%   Direction: 40°NE
Pressure: 29.83"   Gusts: NA
Location:  39.1148°N, 77.252°W
Report Text: KGAI 261615Z 04007KT 2 1/2SM OVC008 M01/M03 A2983 RMK AO1
Loading
Personal Weather Stations






























Interactive Weather Map New forecast layout! Learn more

10-Day Weather Forecast

Advertisements
Track Severe Weather on mobile